Terminal Aerodrome Forecast
Issued by NWS North Platte, NE

Home | Current Version | Previous Version | Text Only | Print | Product List | Glossary On
Versions: 1 2 3 4 5 6 7 8 9 10 11 12 13 14 15 16 17 18
000
FTUS43 KLBF 270000 AAA
TAFLBF
TAF AMD
KLBF 270008Z 2700/2724 36014G21KT P6SM OVC070
     FM270300 VRB06KT P6SM OVC040
     FM271200 17005KT P6SM -RASN OVC012
     FM271600 18009KT P6SM SCT012 OVC040=

USA.gov is the U.S. government's official web portal to all federal, state and local government web resources and services.